sensor_id;sensor_type;location;lat;lon;timestamp;temperature;humidity
85378;DHT22;75782;48.632;10.230;2024-03-08T00:01:33;3.40;67.00
85378;DHT22;75782;48.632;10.230;2024-03-08T00:04:00;3.40;67.20
85378;DHT22;75782;48.632;10.230;2024-03-08T00:06:27;3.40;67.20
85378;DHT22;75782;48.632;10.230;2024-03-08T00:08:53;3.40;67.20
85378;DHT22;75782;48.632;10.230;2024-03-08T00:11:20;3.40;67.20
85378;DHT22;75782;48.632;10.230;2024-03-08T00:13:47;3.30;67.00
85378;DHT22;75782;48.632;10.230;2024-03-08T00:16:13;3.30;67.30
85378;DHT22;75782;48.632;10.230;2024-03-08T00:18:40;3.30;67.10
85378;DHT22;75782;48.632;10.230;2024-03-08T00:21:06;3.30;67.20
85378;DHT22;75782;48.632;10.230;2024-03-08T00:23:33;3.30;67.20
85378;DHT22;75782;48.632;10.230;2024-03-08T00:26:00;3.30;67.20
85378;DHT22;75782;48.632;10.230;2024-03-08T00:28:26;3.30;67.00
85378;DHT22;75782;48.632;10.230;2024-03-08T00:30:53;3.30;67.00
85378;DHT22;75782;48.632;10.230;2024-03-08T00:33:19;3.40;66.90
85378;DHT22;75782;48.632;10.230;2024-03-08T00:35:46;3.40;66.90
85378;DHT22;75782;48.632;10.230;2024-03-08T00:38:13;3.30;66.90
85378;DHT22;75782;48.632;10.230;2024-03-08T00:40:39;3.30;66.80
85378;DHT22;75782;48.632;10.230;2024-03-08T00:43:06;3.30;66.80
85378;DHT22;75782;48.632;10.230;2024-03-08T00:45:32;3.30;66.90
85378;DHT22;75782;48.632;10.230;2024-03-08T00:47:59;3.30;66.90
85378;DHT22;75782;48.632;10.230;2024-03-08T00:50:26;3.30;67.00
85378;DHT22;75782;48.632;10.230;2024-03-08T00:52:52;3.30;67.00
85378;DHT22;75782;48.632;10.230;2024-03-08T00:55:19;3.20;67.00
85378;DHT22;75782;48.632;10.230;2024-03-08T00:57:45;3.20;67.20
85378;DHT22;75782;48.632;10.230;2024-03-08T01:00:12;3.20;67.30
85378;DHT22;75782;48.632;10.230;2024-03-08T01:02:39;3.20;67.20
85378;DHT22;75782;48.632;10.230;2024-03-08T01:05:06;3.20;67.20
85378;DHT22;75782;48.632;10.230;2024-03-08T01:07:33;3.20;67.10
85378;DHT22;75782;48.632;10.230;2024-03-08T01:09:59;3.20;67.10
85378;DHT22;75782;48.632;10.230;2024-03-08T01:12:26;3.20;67.30
85378;DHT22;75782;48.632;10.230;2024-03-08T01:14:52;3.20;67.20
85378;DHT22;75782;48.632;10.230;2024-03-08T01:17:19;3.10;67.20
85378;DHT22;75782;48.632;10.230;2024-03-08T01:19:45;3.10;67.30
85378;DHT22;75782;48.632;10.230;2024-03-08T01:22:13;3.10;67.30
85378;DHT22;75782;48.632;10.230;2024-03-08T01:24:39;3.10;67.30
85378;DHT22;75782;48.632;10.230;2024-03-08T01:27:06;3.10;67.20
85378;DHT22;75782;48.632;10.230;2024-03-08T01:29:32;3.10;67.20
85378;DHT22;75782;48.632;10.230;2024-03-08T01:31:59;3.10;67.30
85378;DHT22;75782;48.632;10.230;2024-03-08T01:34:26;3.10;67.40
85378;DHT22;75782;48.632;10.230;2024-03-08T01:36:52;3.10;67.30
85378;DHT22;75782;48.632;10.230;2024-03-08T01:39:19;3.00;67.30
85378;DHT22;75782;48.632;10.230;2024-03-08T01:41:45;3.00;67.50
85378;DHT22;75782;48.632;10.230;2024-03-08T01:44:12;2.90;67.60
85378;DHT22;75782;48.632;10.230;2024-03-08T01:46:39;3.00;68.40
85378;DHT22;75782;48.632;10.230;2024-03-08T01:49:05;2.90;67.60
85378;DHT22;75782;48.632;10.230;2024-03-08T01:51:32;2.90;67.60
85378;DHT22;75782;48.632;10.230;2024-03-08T01:53:59;2.90;67.80
85378;DHT22;75782;48.632;10.230;2024-03-08T01:56:25;2.90;67.90
85378;DHT22;75782;48.632;10.230;2024-03-08T01:58:52;2.90;67.90
85378;DHT22;75782;48.632;10.230;2024-03-08T02:01:18;2.80;67.90
85378;DHT22;75782;48.632;10.230;2024-03-08T02:03:46;2.80;67.90
85378;DHT22;75782;48.632;10.230;2024-03-08T02:06:12;2.80;68.00
85378;DHT22;75782;48.632;10.230;2024-03-08T02:08:39;2.80;68.00
85378;DHT22;75782;48.632;10.230;2024-03-08T02:11:05;2.80;68.00
85378;DHT22;75782;48.632;10.230;2024-03-08T02:13:32;2.80;68.10
85378;DHT22;75782;48.632;10.230;2024-03-08T02:15:59;2.80;68.00
85378;DHT22;75782;48.632;10.230;2024-03-08T02:18:25;2.70;68.10
85378;DHT22;75782;48.632;10.230;2024-03-08T02:20:52;2.80;68.30
85378;DHT22;75782;48.632;10.230;2024-03-08T02:23:19;2.70;68.00
85378;DHT22;75782;48.632;10.230;2024-03-08T02:25:45;2.70;68.10
85378;DHT22;75782;48.632;10.230;2024-03-08T02:28:12;2.70;68.30
85378;DHT22;75782;48.632;10.230;2024-03-08T02:30:38;2.70;68.40
85378;DHT22;75782;48.632;10.230;2024-03-08T02:33:05;2.70;68.40
85378;DHT22;75782;48.632;10.230;2024-03-08T02:35:33;2.60;68.40
85378;DHT22;75782;48.632;10.230;2024-03-08T02:38:00;2.60;68.40
85378;DHT22;75782;48.632;10.230;2024-03-08T02:40:26;2.60;68.60
85378;DHT22;75782;48.632;10.230;2024-03-08T02:42:53;2.60;68.50
85378;DHT22;75782;48.632;10.230;2024-03-08T02:45:19;2.60;68.70
85378;DHT22;75782;48.632;10.230;2024-03-08T02:47:46;2.60;68.70
85378;DHT22;75782;48.632;10.230;2024-03-08T02:50:13;2.60;68.60
85378;DHT22;75782;48.632;10.230;2024-03-08T02:52:39;2.50;68.70
85378;DHT22;75782;48.632;10.230;2024-03-08T02:55:07;2.60;68.80
85378;DHT22;75782;48.632;10.230;2024-03-08T02:57:33;2.60;68.80
85378;DHT22;75782;48.632;10.230;2024-03-08T03:00:00;2.60;68.90
85378;DHT22;75782;48.632;10.230;2024-03-08T03:02:27;2.50;68.80
85378;DHT22;75782;48.632;10.230;2024-03-08T03:04:53;2.50;68.80
85378;DHT22;75782;48.632;10.230;2024-03-08T03:07:20;2.50;68.80
85378;DHT22;75782;48.632;10.230;2024-03-08T03:09:46;2.50;68.90
85378;DHT22;75782;48.632;10.230;2024-03-08T03:12:13;2.50;68.80
85378;DHT22;75782;48.632;10.230;2024-03-08T03:14:40;2.50;68.80
85378;DHT22;75782;48.632;10.230;2024-03-08T03:17:06;2.50;68.80
85378;DHT22;75782;48.632;10.230;2024-03-08T03:19:33;2.50;68.70
85378;DHT22;75782;48.632;10.230;2024-03-08T03:22:01;2.50;68.80
85378;DHT22;75782;48.632;10.230;2024-03-08T03:24:26;2.50;68.60
85378;DHT22;75782;48.632;10.230;2024-03-08T03:26:53;2.50;68.70
85378;DHT22;75782;48.632;10.230;2024-03-08T03:29:20;2.50;68.70
85378;DHT22;75782;48.632;10.230;2024-03-08T03:31:47;2.60;68.80
85378;DHT22;75782;48.632;10.230;2024-03-08T03:34:13;2.60;68.70
85378;DHT22;75782;48.632;10.230;2024-03-08T03:36:40;2.60;68.80
85378;DHT22;75782;48.632;10.230;2024-03-08T03:39:06;2.50;68.80
85378;DHT22;75782;48.632;10.230;2024-03-08T03:41:42;2.60;69.10
85378;DHT22;75782;48.632;10.230;2024-03-08T03:44:09;2.50;69.00
85378;DHT22;75782;48.632;10.230;2024-03-08T03:46:36;2.50;69.20
85378;DHT22;75782;48.632;10.230;2024-03-08T03:49:02;2.60;69.30
85378;DHT22;75782;48.632;10.230;2024-03-08T03:51:29;2.60;69.30
85378;DHT22;75782;48.632;10.230;2024-03-08T03:53:55;2.50;69.30
85378;DHT22;75782;48.632;10.230;2024-03-08T03:56:24;2.60;69.50
85378;DHT22;75782;48.632;10.230;2024-03-08T03:58:49;2.50;69.50
85378;DHT22;75782;48.632;10.230;2024-03-08T04:01:15;2.60;69.60
85378;DHT22;75782;48.632;10.230;2024-03-08T04:03:42;2.60;69.30
85378;DHT22;75782;48.632;10.230;2024-03-08T04:06:10;2.70;69.60
85378;DHT22;75782;48.632;10.230;2024-03-08T04:08:36;2.60;69.50
85378;DHT22;75782;48.632;10.230;2024-03-08T04:11:03;2.70;69.50
85378;DHT22;75782;48.632;10.230;2024-03-08T04:13:30;2.70;69.60
85378;DHT22;75782;48.632;10.230;2024-03-08T04:15:56;2.70;69.60
85378;DHT22;75782;48.632;10.230;2024-03-08T04:18:23;2.70;69.30
85378;DHT22;75782;48.632;10.230;2024-03-08T04:20:50;2.80;69.40
85378;DHT22;75782;48.632;10.230;2024-03-08T04:23:17;2.80;69.30
85378;DHT22;75782;48.632;10.230;2024-03-08T04:25:44;2.70;69.20
85378;DHT22;75782;48.632;10.230;2024-03-08T04:28:11;2.70;69.40
85378;DHT22;75782;48.632;10.230;2024-03-08T04:30:38;2.70;69.60
85378;DHT22;75782;48.632;10.230;2024-03-08T04:33:06;2.70;69.90
85378;DHT22;75782;48.632;10.230;2024-03-08T04:35:33;2.70;69.50
85378;DHT22;75782;48.632;10.230;2024-03-08T04:38:01;2.70;69.50
85378;DHT22;75782;48.632;10.230;2024-03-08T04:40:27;2.70;69.40
85378;DHT22;75782;48.632;10.230;2024-03-08T04:42:54;2.70;69.40
85378;DHT22;75782;48.632;10.230;2024-03-08T04:45:21;2.70;69.50
85378;DHT22;75782;48.632;10.230;2024-03-08T04:47:47;2.70;69.60
85378;DHT22;75782;48.632;10.230;2024-03-08T04:50:14;2.70;69.70
85378;DHT22;75782;48.632;10.230;2024-03-08T04:52:40;2.70;69.80
85378;DHT22;75782;48.632;10.230;2024-03-08T04:55:07;2.70;69.60
85378;DHT22;75782;48.632;10.230;2024-03-08T04:57:34;2.70;69.60
85378;DHT22;75782;48.632;10.230;2024-03-08T05:00:02;2.70;69.30
85378;DHT22;75782;48.632;10.230;2024-03-08T05:02:27;2.70;69.60
85378;DHT22;75782;48.632;10.230;2024-03-08T05:04:53;2.70;69.40
85378;DHT22;75782;48.632;10.230;2024-03-08T05:07:20;2.70;69.60
85378;DHT22;75782;48.632;10.230;2024-03-08T05:09:47;2.80;69.50
85378;DHT22;75782;48.632;10.230;2024-03-08T05:12:14;2.70;69.50
85378;DHT22;75782;48.632;10.230;2024-03-08T05:14:41;2.80;69.40
85378;DHT22;75782;48.632;10.230;2024-03-08T05:17:07;2.70;69.60
85378;DHT22;75782;48.632;10.230;2024-03-08T05:19:34;2.70;69.70
85378;DHT22;75782;48.632;10.230;2024-03-08T05:22:00;2.70;69.60
85378;DHT22;75782;48.632;10.230;2024-03-08T05:24:27;2.70;69.60
85378;DHT22;75782;48.632;10.230;2024-03-08T05:26:54;2.70;69.60
85378;DHT22;75782;48.632;10.230;2024-03-08T05:29:20;2.70;69.70
85378;DHT22;75782;48.632;10.230;2024-03-08T05:31:50;2.60;69.60
85378;DHT22;75782;48.632;10.230;2024-03-08T05:34:16;2.60;69.70
85378;DHT22;75782;48.632;10.230;2024-03-08T05:36:42;2.60;70.00
85378;DHT22;75782;48.632;10.230;2024-03-08T05:39:10;2.70;69.90
85378;DHT22;75782;48.632;10.230;2024-03-08T05:41:36;2.70;69.80
85378;DHT22;75782;48.632;10.230;2024-03-08T05:44:02;2.70;69.50
85378;DHT22;75782;48.632;10.230;2024-03-08T05:46:29;2.70;69.60
85378;DHT22;75782;48.632;10.230;2024-03-08T05:48:56;2.70;69.60
85378;DHT22;75782;48.632;10.230;2024-03-08T05:51:23;2.60;69.50
85378;DHT22;75782;48.632;10.230;2024-03-08T05:53:50;2.60;69.40
85378;DHT22;75782;48.632;10.230;2024-03-08T05:56:16;2.60;69.20
85378;DHT22;75782;48.632;10.230;2024-03-08T05:58:44;2.60;69.30
85378;DHT22;75782;48.632;10.230;2024-03-08T06:01:10;2.60;69.30
85378;DHT22;75782;48.632;10.230;2024-03-08T06:03:37;2.60;69.40
85378;DHT22;75782;48.632;10.230;2024-03-08T06:06:04;2.60;69.40
85378;DHT22;75782;48.632;10.230;2024-03-08T06:08:30;2.60;69.60
85378;DHT22;75782;48.632;10.230;2024-03-08T06:10:57;2.60;70.00
85378;DHT22;75782;48.632;10.230;2024-03-08T06:13:23;2.50;69.20
85378;DHT22;75782;48.632;10.230;2024-03-08T06:15:50;2.60;69.20
85378;DHT22;75782;48.632;10.230;2024-03-08T06:18:17;2.60;69.10
85378;DHT22;75782;48.632;10.230;2024-03-08T06:20:44;2.60;69.10
85378;DHT22;75782;48.632;10.230;2024-03-08T06:23:11;2.60;68.80
85378;DHT22;75782;48.632;10.230;2024-03-08T06:25:38;2.50;69.00
85378;DHT22;75782;48.632;10.230;2024-03-08T06:28:05;2.60;69.40
85378;DHT22;75782;48.632;10.230;2024-03-08T06:30:31;2.50;69.30
85378;DHT22;75782;48.632;10.230;2024-03-08T06:32:58;2.60;68.70
85378;DHT22;75782;48.632;10.230;2024-03-08T06:35:25;2.60;69.40
85378;DHT22;75782;48.632;10.230;2024-03-08T06:37:51;2.60;69.30
85378;DHT22;75782;48.632;10.230;2024-03-08T06:40:18;2.60;69.20
85378;DHT22;75782;48.632;10.230;2024-03-08T06:42:44;2.50;69.20
85378;DHT22;75782;48.632;10.230;2024-03-08T06:45:11;2.50;69.30
85378;DHT22;75782;48.632;10.230;2024-03-08T06:47:38;2.60;70.30
85378;DHT22;75782;48.632;10.230;2024-03-08T06:50:05;2.50;69.50
85378;DHT22;75782;48.632;10.230;2024-03-08T06:52:32;2.50;69.50
85378;DHT22;75782;48.632;10.230;2024-03-08T06:54:59;2.60;69.40
85378;DHT22;75782;48.632;10.230;2024-03-08T06:57:25;2.60;69.10
85378;DHT22;75782;48.632;10.230;2024-03-08T06:59:52;2.60;69.10
85378;DHT22;75782;48.632;10.230;2024-03-08T07:02:18;2.70;69.30
85378;DHT22;75782;48.632;10.230;2024-03-08T07:04:45;2.70;69.00
85378;DHT22;75782;48.632;10.230;2024-03-08T07:07:12;2.70;69.00
85378;DHT22;75782;48.632;10.230;2024-03-08T07:09:38;2.70;69.10
85378;DHT22;75782;48.632;10.230;2024-03-08T07:12:05;2.80;69.20
85378;DHT22;75782;48.632;10.230;2024-03-08T07:14:32;2.80;68.90
85378;DHT22;75782;48.632;10.230;2024-03-08T07:16:58;2.80;68.70
85378;DHT22;75782;48.632;10.230;2024-03-08T07:19:25;2.80;68.90
85378;DHT22;75782;48.632;10.230;2024-03-08T07:21:51;2.80;68.80
85378;DHT22;75782;48.632;10.230;2024-03-08T07:24:18;2.80;68.80
85378;DHT22;75782;48.632;10.230;2024-03-08T07:27:00;2.80;68.80
85378;DHT22;75782;48.632;10.230;2024-03-08T07:29:27;2.90;68.70
85378;DHT22;75782;48.632;10.230;2024-03-08T07:31:54;2.90;68.60
85378;DHT22;75782;48.632;10.230;2024-03-08T07:34:22;2.90;68.60
85378;DHT22;75782;48.632;10.230;2024-03-08T07:36:49;2.90;68.80
85378;DHT22;75782;48.632;10.230;2024-03-08T07:39:16;2.90;68.90
85378;DHT22;75782;48.632;10.230;2024-03-08T07:41:43;2.90;68.90
85378;DHT22;75782;48.632;10.230;2024-03-08T07:44:09;2.90;68.70
85378;DHT22;75782;48.632;10.230;2024-03-08T07:46:36;3.00;68.70
85378;DHT22;75782;48.632;10.230;2024-03-08T07:49:03;3.10;68.60
85378;DHT22;75782;48.632;10.230;2024-03-08T07:51:29;3.10;68.20
85378;DHT22;75782;48.632;10.230;2024-03-08T07:53:56;3.10;68.30
85378;DHT22;75782;48.632;10.230;2024-03-08T07:56:22;3.10;68.50
85378;DHT22;75782;48.632;10.230;2024-03-08T07:58:49;3.10;68.40
85378;DHT22;75782;48.632;10.230;2024-03-08T08:01:17;3.10;68.40
85378;DHT22;75782;48.632;10.230;2024-03-08T08:03:44;3.10;68.40
85378;DHT22;75782;48.632;10.230;2024-03-08T08:06:10;3.10;67.90
85378;DHT22;75782;48.632;10.230;2024-03-08T08:08:37;3.20;68.10
85378;DHT22;75782;48.632;10.230;2024-03-08T08:11:03;3.20;68.00
85378;DHT22;75782;48.632;10.230;2024-03-08T08:13:30;3.20;67.70
85378;DHT22;75782;48.632;10.230;2024-03-08T08:15:57;3.20;67.80
85378;DHT22;75782;48.632;10.230;2024-03-08T08:18:23;3.20;68.10
85378;DHT22;75782;48.632;10.230;2024-03-08T08:20:50;3.20;67.90
85378;DHT22;75782;48.632;10.230;2024-03-08T08:23:16;3.20;68.00
85378;DHT22;75782;48.632;10.230;2024-03-08T08:25:43;3.30;67.80
85378;DHT22;75782;48.632;10.230;2024-03-08T08:28:10;3.30;67.60
85378;DHT22;75782;48.632;10.230;2024-03-08T08:30:37;3.30;67.60
85378;DHT22;75782;48.632;10.230;2024-03-08T08:33:04;3.40;67.60
85378;DHT22;75782;48.632;10.230;2024-03-08T08:35:31;3.30;67.50
85378;DHT22;75782;48.632;10.230;2024-03-08T08:37:58;3.40;67.20
85378;DHT22;75782;48.632;10.230;2024-03-08T08:40:24;3.40;67.50
85378;DHT22;75782;48.632;10.230;2024-03-08T08:42:51;3.40;67.30
85378;DHT22;75782;48.632;10.230;2024-03-08T08:45:18;3.40;67.10
85378;DHT22;75782;48.632;10.230;2024-03-08T08:47:44;3.40;66.70
85378;DHT22;75782;48.632;10.230;2024-03-08T08:50:11;3.50;67.20
85378;DHT22;75782;48.632;10.230;2024-03-08T08:52:39;3.50;67.00
85378;DHT22;75782;48.632;10.230;2024-03-08T08:55:05;3.50;66.90
85378;DHT22;75782;48.632;10.230;2024-03-08T08:57:32;3.50;66.40
85378;DHT22;75782;48.632;10.230;2024-03-08T08:59:59;3.50;66.60
85378;DHT22;75782;48.632;10.230;2024-03-08T09:02:26;3.50;67.00
85378;DHT22;75782;48.632;10.230;2024-03-08T09:04:53;3.60;66.80
85378;DHT22;75782;48.632;10.230;2024-03-08T09:07:20;3.60;66.20
85378;DHT22;75782;48.632;10.230;2024-03-08T09:09:47;3.60;66.20
85378;DHT22;75782;48.632;10.230;2024-03-08T09:12:13;3.60;66.40
85378;DHT22;75782;48.632;10.230;2024-03-08T09:14:41;3.60;66.20
85378;DHT22;75782;48.632;10.230;2024-03-08T09:17:08;3.70;66.20
85378;DHT22;75782;48.632;10.230;2024-03-08T09:19:34;3.70;66.10
85378;DHT22;75782;48.632;10.230;2024-03-08T09:22:01;3.80;66.50
85378;DHT22;75782;48.632;10.230;2024-03-08T09:24:27;3.80;66.40
85378;DHT22;75782;48.632;10.230;2024-03-08T09:26:54;3.90;65.60
85378;DHT22;75782;48.632;10.230;2024-03-08T09:29:20;3.90;65.70
85378;DHT22;75782;48.632;10.230;2024-03-08T09:31:47;3.90;65.70
85378;DHT22;75782;48.632;10.230;2024-03-08T09:34:14;4.00;65.50
85378;DHT22;75782;48.632;10.230;2024-03-08T09:36:40;4.00;65.70
85378;DHT22;75782;48.632;10.230;2024-03-08T09:39:07;4.10;65.70
85378;DHT22;75782;48.632;10.230;2024-03-08T09:41:33;4.10;65.20
85378;DHT22;75782;48.632;10.230;2024-03-08T09:44:00;4.20;65.10
85378;DHT22;75782;48.632;10.230;2024-03-08T09:46:27;4.20;64.80
85378;DHT22;75782;48.632;10.230;2024-03-08T09:48:53;4.30;65.00
85378;DHT22;75782;48.632;10.230;2024-03-08T09:51:21;4.30;64.70
85378;DHT22;75782;48.632;10.230;2024-03-08T09:53:47;4.30;64.80
85378;DHT22;75782;48.632;10.230;2024-03-08T09:56:14;4.40;65.10
85378;DHT22;75782;48.632;10.230;2024-03-08T09:58:41;4.50;64.30
85378;DHT22;75782;48.632;10.230;2024-03-08T10:01:24;4.40;64.30
85378;DHT22;75782;48.632;10.230;2024-03-08T10:03:51;4.50;64.40
85378;DHT22;75782;48.632;10.230;2024-03-08T10:06:22;4.60;64.40
85378;DHT22;75782;48.632;10.230;2024-03-08T10:08:45;4.60;63.90
85378;DHT22;75782;48.632;10.230;2024-03-08T10:11:12;4.60;63.90
85378;DHT22;75782;48.632;10.230;2024-03-08T10:13:39;4.70;63.10
85378;DHT22;75782;48.632;10.230;2024-03-08T10:16:05;4.70;63.10
85378;DHT22;75782;48.632;10.230;2024-03-08T10:18:32;4.70;63.60
85378;DHT22;75782;48.632;10.230;2024-03-08T10:21:03;4.70;62.90
85378;DHT22;75782;48.632;10.230;2024-03-08T10:23:30;4.80;63.70
85378;DHT22;75782;48.632;10.230;2024-03-08T10:25:57;4.90;63.30
85378;DHT22;75782;48.632;10.230;2024-03-08T10:28:23;4.90;63.30
85378;DHT22;75782;48.632;10.230;2024-03-08T10:30:51;4.90;62.80
85378;DHT22;75782;48.632;10.230;2024-03-08T10:33:17;5.00;63.00
85378;DHT22;75782;48.632;10.230;2024-03-08T10:35:44;5.00;63.10
85378;DHT22;75782;48.632;10.230;2024-03-08T10:38:10;5.00;63.40
85378;DHT22;75782;48.632;10.230;2024-03-08T10:40:37;5.10;62.80
85378;DHT22;75782;48.632;10.230;2024-03-08T10:43:04;5.20;62.80
85378;DHT22;75782;48.632;10.230;2024-03-08T10:45:35;5.40;61.70
85378;DHT22;75782;48.632;10.230;2024-03-08T10:50:48;5.50;61.60
85378;DHT22;75782;48.632;10.230;2024-03-08T10:53:14;5.70;61.10
85378;DHT22;75782;48.632;10.230;2024-03-08T10:55:41;6.10;61.50
85378;DHT22;75782;48.632;10.230;2024-03-08T10:58:09;6.60;59.60
85378;DHT22;75782;48.632;10.230;2024-03-08T11:00:36;7.50;57.70
85378;DHT22;75782;48.632;10.230;2024-03-08T11:03:04;8.00;57.20
85378;DHT22;75782;48.632;10.230;2024-03-08T11:05:35;8.00;57.20
85378;DHT22;75782;48.632;10.230;2024-03-08T11:07:59;8.40;55.60
85378;DHT22;75782;48.632;10.230;2024-03-08T11:10:26;8.70;54.50
85378;DHT22;75782;48.632;10.230;2024-03-08T11:12:52;8.90;54.30
85378;DHT22;75782;48.632;10.230;2024-03-08T11:15:19;9.20;54.50
85378;DHT22;75782;48.632;10.230;2024-03-08T11:17:48;9.40;54.40
85378;DHT22;75782;48.632;10.230;2024-03-08T11:20:16;9.60;52.10
85378;DHT22;75782;48.632;10.230;2024-03-08T11:22:47;9.70;52.60
85378;DHT22;75782;48.632;10.230;2024-03-08T11:25:09;10.00;53.20
85378;DHT22;75782;48.632;10.230;2024-03-08T11:27:36;10.20;51.40
85378;DHT22;75782;48.632;10.230;2024-03-08T11:30:05;10.30;51.60
85378;DHT22;75782;48.632;10.230;2024-03-08T11:32:37;10.50;52.00
85378;DHT22;75782;48.632;10.230;2024-03-08T11:35:06;10.80;49.60
85378;DHT22;75782;48.632;10.230;2024-03-08T11:37:33;10.80;49.60
85378;DHT22;75782;48.632;10.230;2024-03-08T11:39:59;11.10;48.80
85378;DHT22;75782;48.632;10.230;2024-03-08T11:42:26;11.10;48.80
85378;DHT22;75782;48.632;10.230;2024-03-08T11:44:53;11.30;48.60
85378;DHT22;75782;48.632;10.230;2024-03-08T11:47:20;11.30;48.10
85378;DHT22;75782;48.632;10.230;2024-03-08T11:49:47;11.40;48.40
85378;DHT22;75782;48.632;10.230;2024-03-08T11:52:14;11.50;47.30
85378;DHT22;75782;48.632;10.230;2024-03-08T11:54:40;11.50;46.80
85378;DHT22;75782;48.632;10.230;2024-03-08T11:57:06;11.40;47.40
85378;DHT22;75782;48.632;10.230;2024-03-08T11:59:33;11.30;47.70
85378;DHT22;75782;48.632;10.230;2024-03-08T12:02:01;11.30;48.40
85378;DHT22;75782;48.632;10.230;2024-03-08T12:04:26;11.30;48.60
85378;DHT22;75782;48.632;10.230;2024-03-08T12:06:53;11.40;48.80
85378;DHT22;75782;48.632;10.230;2024-03-08T12:09:19;11.40;49.30
85378;DHT22;75782;48.632;10.230;2024-03-08T12:11:47;11.20;48.40
85378;DHT22;75782;48.632;10.230;2024-03-08T12:14:14;11.10;49.40
85378;DHT22;75782;48.632;10.230;2024-03-08T12:16:41;11.10;49.40
85378;DHT22;75782;48.632;10.230;2024-03-08T12:19:07;11.30;50.60
85378;DHT22;75782;48.632;10.230;2024-03-08T12:21:35;11.40;49.10
85378;DHT22;75782;48.632;10.230;2024-03-08T12:24:03;11.40;49.00
85378;DHT22;75782;48.632;10.230;2024-03-08T12:26:29;11.50;48.80
85378;DHT22;75782;48.632;10.230;2024-03-08T12:29:00;11.60;48.50
85378;DHT22;75782;48.632;10.230;2024-03-08T12:31:22;11.80;48.10
85378;DHT22;75782;48.632;10.230;2024-03-08T12:33:50;11.80;48.00
85378;DHT22;75782;48.632;10.230;2024-03-08T12:36:17;11.80;46.80
85378;DHT22;75782;48.632;10.230;2024-03-08T12:38:44;11.70;47.40
85378;DHT22;75782;48.632;10.230;2024-03-08T12:41:18;11.80;47.20
85378;DHT22;75782;48.632;10.230;2024-03-08T12:43:45;11.70;46.70
85378;DHT22;75782;48.632;10.230;2024-03-08T12:46:18;11.60;47.70
85378;DHT22;75782;48.632;10.230;2024-03-08T12:48:46;11.60;47.90
85378;DHT22;75782;48.632;10.230;2024-03-08T12:51:15;11.60;48.20
85378;DHT22;75782;48.632;10.230;2024-03-08T12:53:42;11.60;48.80
85378;DHT22;75782;48.632;10.230;2024-03-08T12:56:11;11.70;48.70
85378;DHT22;75782;48.632;10.230;2024-03-08T12:58:37;11.70;48.90
85378;DHT22;75782;48.632;10.230;2024-03-08T13:01:04;11.70;49.00
85378;DHT22;75782;48.632;10.230;2024-03-08T13:03:31;11.80;48.90
85378;DHT22;75782;48.632;10.230;2024-03-08T13:05:57;11.80;48.10
85378;DHT22;75782;48.632;10.230;2024-03-08T13:08:24;11.80;48.50
85378;DHT22;75782;48.632;10.230;2024-03-08T13:10:51;11.80;48.30
85378;DHT22;75782;48.632;10.230;2024-03-08T13:13:18;11.90;48.40
85378;DHT22;75782;48.632;10.230;2024-03-08T13:15:45;11.90;48.40
85378;DHT22;75782;48.632;10.230;2024-03-08T13:18:11;11.90;47.20
85378;DHT22;75782;48.632;10.230;2024-03-08T13:20:38;11.90;48.10
85378;DHT22;75782;48.632;10.230;2024-03-08T13:23:04;11.80;48.30
85378;DHT22;75782;48.632;10.230;2024-03-08T13:25:31;11.80;47.50
85378;DHT22;75782;48.632;10.230;2024-03-08T13:27:57;11.80;48.90
85378;DHT22;75782;48.632;10.230;2024-03-08T13:30:24;11.70;48.70
85378;DHT22;75782;48.632;10.230;2024-03-08T13:32:52;11.70;49.00
85378;DHT22;75782;48.632;10.230;2024-03-08T13:35:19;11.70;48.70
85378;DHT22;75782;48.632;10.230;2024-03-08T13:37:45;11.70;48.50
85378;DHT22;75782;48.632;10.230;2024-03-08T13:40:12;11.70;48.50
85378;DHT22;75782;48.632;10.230;2024-03-08T13:42:39;11.70;49.00
85378;DHT22;75782;48.632;10.230;2024-03-08T13:45:08;11.70;48.00
85378;DHT22;75782;48.632;10.230;2024-03-08T13:47:35;11.60;48.50
85378;DHT22;75782;48.632;10.230;2024-03-08T13:50:01;11.60;48.50
85378;DHT22;75782;48.632;10.230;2024-03-08T13:52:28;11.60;48.50
85378;DHT22;75782;48.632;10.230;2024-03-08T13:54:55;11.40;48.40
85378;DHT22;75782;48.632;10.230;2024-03-08T13:57:22;11.30;48.70
85378;DHT22;75782;48.632;10.230;2024-03-08T13:59:49;11.30;48.70
85378;DHT22;75782;48.632;10.230;2024-03-08T14:02:15;11.30;48.90
85378;DHT22;75782;48.632;10.230;2024-03-08T14:04:42;11.30;48.70
85378;DHT22;75782;48.632;10.230;2024-03-08T14:07:09;11.20;49.00
85378;DHT22;75782;48.632;10.230;2024-03-08T14:09:36;11.20;49.00
85378;DHT22;75782;48.632;10.230;2024-03-08T14:12:04;11.20;48.50
85378;DHT22;75782;48.632;10.230;2024-03-08T14:14:33;11.10;48.90
85378;DHT22;75782;48.632;10.230;2024-03-08T14:16:59;11.10;49.20
85378;DHT22;75782;48.632;10.230;2024-03-08T14:19:26;11.10;48.60
85378;DHT22;75782;48.632;10.230;2024-03-08T14:21:53;11.10;49.10
85378;DHT22;75782;48.632;10.230;2024-03-08T14:24:19;11.00;48.60
85378;DHT22;75782;48.632;10.230;2024-03-08T14:26:47;10.90;49.10
85378;DHT22;75782;48.632;10.230;2024-03-08T14:29:13;10.90;49.10
85378;DHT22;75782;48.632;10.230;2024-03-08T14:31:40;10.90;49.10
85378;DHT22;75782;48.632;10.230;2024-03-08T14:34:07;10.90;49.10
85378;DHT22;75782;48.632;10.230;2024-03-08T14:36:34;10.80;49.10
85378;DHT22;75782;48.632;10.230;2024-03-08T14:39:01;10.70;49.00
85378;DHT22;75782;48.632;10.230;2024-03-08T14:41:27;10.70;48.70
85378;DHT22;75782;48.632;10.230;2024-03-08T14:43:54;10.70;49.60
85378;DHT22;75782;48.632;10.230;2024-03-08T14:46:21;10.70;49.10
85378;DHT22;75782;48.632;10.230;2024-03-08T14:48:47;10.70;49.70
85378;DHT22;75782;48.632;10.230;2024-03-08T14:51:14;10.70;48.90
85378;DHT22;75782;48.632;10.230;2024-03-08T14:53:41;10.60;48.70
85378;DHT22;75782;48.632;10.230;2024-03-08T14:56:08;10.60;48.70
85378;DHT22;75782;48.632;10.230;2024-03-08T14:58:35;10.60;49.30
85378;DHT22;75782;48.632;10.230;2024-03-08T15:01:01;10.50;48.80
85378;DHT22;75782;48.632;10.230;2024-03-08T15:03:28;10.50;48.30
85378;DHT22;75782;48.632;10.230;2024-03-08T15:05:54;10.40;48.30
85378;DHT22;75782;48.632;10.230;2024-03-08T15:08:21;10.40;48.90
85378;DHT22;75782;48.632;10.230;2024-03-08T15:10:48;10.40;48.90
85378;DHT22;75782;48.632;10.230;2024-03-08T15:13:14;10.40;48.40
85378;DHT22;75782;48.632;10.230;2024-03-08T15:15:41;10.40;49.20
85378;DHT22;75782;48.632;10.230;2024-03-08T15:18:07;10.30;48.70
85378;DHT22;75782;48.632;10.230;2024-03-08T15:20:34;10.30;48.20
85378;DHT22;75782;48.632;10.230;2024-03-08T15:23:00;10.30;48.10
85378;DHT22;75782;48.632;10.230;2024-03-08T15:25:28;10.30;48.70
85378;DHT22;75782;48.632;10.230;2024-03-08T15:27:55;10.20;48.70